Página principal
METAR-TAF:

METAR-TAF

Aeroportos :

Bagdá, Iraque

Aeroporto Internacional de Bagdad

latitude: 33-15-45N, longitude: 44-14-04E, altura: 35 m

Observação actual do tempo

O boletim foi feito há 25 minutos, às 23:00 UTC
Vento 12 kt de oes-noroeste
Temperatura 9°C
Humidade 61%
Pressão 1021 hPa
Visibilidade 10 km ou mais
sem nuvens abaixo de 1500 metros e sem cumulonimbus

METAR: ORBI 122300Z 29012KT CAVOK 09/02 Q1021 NOSIG

Hora: 02:25 (23:25 UTC)

Previsão

O boletim foi feito há 7 horas e 25 minutos, às 16:00 UTC
Previsão válida de 12 às 18 UTC a 13 às 18 UTC
Vento 10 kt de noroeste
Visibilidade: 8000 m
Tornando-se
de 13 às 12 UTC a 13 às 14 UTC
Vento 5 kt de su-sudeste

TAF: ORBI 121600Z 1218/1318 32010KT 8000 NSC BECMG 1312/1314 16005KT

Observações e previsões do tempo de mais de 4000 aeroportos (mensagens METAR e TAF).

As estações disponíveis são os pontos amarelos e vermelhos sobre o mapa.

Mova o rato sobre o mapa para ver o nome da estação.

Depois clique no ponto para visualizar as observações e previsões meteorológicas.

Para alterar o mapa : clique nos botões verdes com uma cruz preta para aumentar o zoom; no botão verde com uma pitada de zoom; ou nas setas verdes para mapas adjacentes.


METAR-TAF: